Portada
METAR-TAF:

METAR-TAF

Aeroports :

Coatesville, Pennsilvània, Estats Units d'Amèrica

latitud: 39-58-44N, longitud: 075-51-56W, altitud: 201 m

Observació

L'informe es va fer fa 13 minuts, a les 15:55 UTC
Vent 10 kt del Oest/Nord-Oest
Temperatura 26°C
Humitat 70%
Pressió 1013 hPa
Visibilitat: 16.1 km
Núvols disperses a una alçada de 3000 ft

METAR: KMQS 251555Z AUTO 30010KT 10SM SCT030 26/20 A2990 RMK AO2

Hora: 12:08 (16:08 UTC)


TAF: manca

Observacions i pronòstics meteorològics de més de 4000 aeroports (METAR i TAF).

Les estacions disponibles són els punts grocs i vermells al mapa.

Posi el ratolí al punt desitjat per veure el nom de l'estació.

Feu clic per veure les observacions i els pronòstics meteorològics.

Per canviar el mapa: feu clic els botons verds amb una creu de color negre per apropar; al botó verd amb un guió per allunyar la imatge; o en les fletxes verdes per a mapes adjacents.


METAR-TAF: